Time;durP1;ratioP1;P1;durP2;ratioP2;P2;SDS_P1;SDS_P2;PMS_P1;PMS_P2;Temp;Humidity;BMP_temperature;BMP_pressure;BME280_temperature;BME280_humidity;BME280_pressure;Samples;Min_cycle;Max_cycle;Signal;HPM_P1;HPM_P2
2021/06/05 00:01:51;;;;;;;27.88;25.15;;;19.70;99.60;;;;;;4956351;28;20031;-64
2021/06/05 00:04:18;;;;;;;28.95;26.02;;;19.70;99.60;;;;;;4956087;28;20028;-64
2021/06/05 00:06:45;;;;;;;27.65;25.13;;;19.70;99.60;;;;;;4956325;28;20066;-64
2021/06/05 00:09:11;;;;;;;28.20;25.50;;;19.70;99.70;;;;;;4956530;28;20036;-64
2021/06/05 00:11:37;;;;;;;28.25;25.10;;;19.70;99.70;;;;;;4955732;28;20031;-64
2021/06/05 00:14:05;;;;;;;27.48;24.60;;;19.70;99.70;;;;;;4956020;28;20039;-64
2021/06/05 00:16:38;;;;;;;26.38;23.77;;;19.70;99.80;;;;;;4956303;28;20034;-64
2021/06/05 00:19:05;;;;;;;26.50;23.80;;;19.70;99.80;;;;;;4955239;29;20042;-64
2021/06/05 00:21:31;;;;;;;26.40;23.63;;;19.70;99.80;;;;;;4956326;28;20103;-64
2021/06/05 00:23:57;;;;;;;28.17;25.50;;;19.70;99.80;;;;;;4955962;28;20108;-64
2021/06/05 00:26:24;;;;;;;29.98;24.27;;;19.70;99.80;;;;;;4955417;28;20026;-64
2021/06/05 00:28:49;;;;;;;30.50;26.00;;;19.70;99.80;;;;;;4955743;28;20036;-64
2021/06/05 00:31:15;;;;;;;28.65;25.98;;;19.70;99.90;;;;;;4956332;28;20025;-64
2021/06/05 00:33:41;;;;;;;29.02;26.17;;;19.80;99.90;;;;;;4955422;28;20027;-63
2021/06/05 00:36:09;;;;;;;31.67;28.55;;;19.80;99.90;;;;;;4955765;28;20023;-63
2021/06/05 00:38:36;;;;;;;30.85;27.75;;;19.70;99.90;;;;;;4955219;28;20023;-63
2021/06/05 00:41:03;;;;;;;30.95;27.75;;;19.70;99.90;;;;;;4955635;28;20637;-64
2021/06/05 00:43:31;;;;;;;32.60;29.48;;;19.70;99.90;;;;;;4955685;28;20365;-64
2021/06/05 00:45:58;;;;;;;40.08;30.15;;;19.70;99.90;;;;;;4954900;28;20035;-63
2021/06/05 00:48:24;;;;;;;32.55;28.67;;;19.60;99.90;;;;;;4955809;28;20460;-65
2021/06/05 00:50:50;;;;;;;35.15;29.42;;;19.70;99.90;;;;;;4955235;28;20034;-64
2021/06/05 00:53:18;;;;;;;33.30;29.98;;;19.60;99.90;;;;;;4953918;29;20035;-65
2021/06/05 00:55:47;;;;;;;34.50;31.00;;;19.50;99.90;;;;;;4955333;28;20051;-63
2021/06/05 00:58:14;;;;;;;34.55;31.10;;;19.40;99.90;;;;;;4955499;28;20082;-65
2021/06/05 01:00:41;;;;;;;33.33;29.92;;;19.40;99.90;;;;;;4955042;28;20038;-63
2021/06/05 01:03:08;;;;;;;33.67;30.50;;;19.40;99.90;;;;;;4955228;28;20495;-64
2021/06/05 01:05:36;;;;;;;35.33;31.67;;;19.20;99.90;;;;;;4955699;28;20038;-63
2021/06/05 01:08:44;;;;;;;36.78;32.80;;;19.20;99.90;;;;;;4954401;28;20019;-65
2021/06/05 01:11:40;;;;;;;37.97;34.22;;;19.20;99.90;;;;;;4944788;28;20106;-67
2021/06/05 01:14:36;;;;;;;35.50;31.98;;;19.20;99.90;;;;;;4954534;28;20388;-65
2021/06/05 01:17:32;;;;;;;36.72;33.25;;;19.20;99.90;;;;;;4954894;28;20037;-65
2021/06/05 01:20:06;;;;;;;36.90;32.95;;;19.20;99.90;;;;;;4954895;28;20050;-64
2021/06/05 01:23:09;;;;;;;38.80;35.20;;;19.10;99.90;;;;;;4954837;28;20037;-65
2021/06/05 01:26:02;;;;;;;36.88;33.28;;;19.10;99.90;;;;;;4955127;28;20034;-64
2021/06/05 01:28:38;;;;;;;39.90;36.03;;;19.00;99.90;;;;;;4954288;28;20385;-65
2021/06/05 01:31:12;;;;;;;43.10;38.92;;;19.00;99.90;;;;;;4954912;28;20083;-65
2021/06/05 01:33:41;;;;;;;43.92;39.72;;;18.90;99.90;;;;;;4953811;29;20066;-64
2021/06/05 01:36:08;;;;;;;41.85;37.55;;;18.90;99.90;;;;;;4954129;28;20054;-64
2021/06/05 01:38:37;;;;;;;41.80;37.72;;;18.80;99.90;;;;;;4954933;28;20019;-65
2021/06/05 01:41:04;;;;;;;40.05;36.25;;;18.80;99.90;;;;;;4954863;28;20031;-64
2021/06/05 01:43:30;;;;;;;39.05;35.35;;;18.70;99.90;;;;;;4954372;28;20047;-66
2021/06/05 01:45:57;;;;;;;40.95;37.08;;;18.70;99.90;;;;;;4953393;29;20472;-65
2021/06/05 01:48:23;;;;;;;41.83;37.72;;;18.70;99.90;;;;;;4954661;28;20031;-65
2021/06/05 01:50:49;;;;;;;48.33;43.30;;;18.80;99.90;;;;;;4953826;28;20019;-65
2021/06/05 01:53:27;;;;;;;47.33;42.55;;;18.70;99.90;;;;;;4955084;28;20534;-67
2021/06/05 01:56:06;;;;;;;46.10;41.60;;;18.70;99.90;;;;;;4953976;28;20027;-64
2021/06/05 01:58:34;;;;;;;53.35;47.85;;;18.80;99.90;;;;;;4954824;28;20054;-64
2021/06/05 02:01:00;;;;;;;52.30;47.08;;;18.80;99.90;;;;;;4954384;28;20031;-64
2021/06/05 02:03:26;;;;;;;53.45;47.85;;;18.80;99.90;;;;;;4953308;28;20447;-64
2021/06/05 02:05:52;;;;;;;55.58;49.97;;;18.80;99.90;;;;;;4954365;28;20038;-63
2021/06/05 02:08:24;;;;;;;57.63;50.58;;;18.80;99.90;;;;;;4954687;28;20391;-64
2021/06/05 02:10:51;;;;;;;;;;;18.80;99.90;;;;;;4954213;28;20102;-63
2021/06/05 02:13:23;;;;;;;57.15;51.17;;;18.70;99.90;;;;;;4953260;29;20298;-63
2021/06/05 02:15:52;;;;;;;56.60;50.70;;;18.70;99.90;;;;;;4954188;28;20059;-63
2021/06/05 02:18:24;;;;;;;68.75;55.17;;;18.60;99.90;;;;;;4953790;28;20384;-63
2021/06/05 02:20:57;;;;;;;56.08;50.28;;;18.50;99.80;;;;;;4954175;28;20451;-64
2021/06/05 02:23:45;;;;;;;56.47;50.47;;;18.40;99.80;;;;;;4954411;28;20031;-64
2021/06/05 02:26:13;;;;;;;54.60;48.25;;;18.40;99.80;;;;;;4952487;28;20034;-63
2021/06/05 02:28:39;;;;;;;57.08;50.92;;;18.40;99.90;;;;;;4954411;28;20039;-63
2021/06/05 02:31:07;;;;;;;58.85;52.55;;;18.40;99.80;;;;;;4953937;28;20023;-63
2021/06/05 02:33:34;;;;;;;61.75;53.70;;;18.40;99.70;;;;;;4954549;28;20024;-64
2021/06/05 02:36:01;;;;;;;60.05;52.97;;;18.30;99.60;;;;;;4954166;28;20027;-64
2021/06/05 02:38:27;;;;;;;68.85;55.63;;;18.30;99.40;;;;;;4953634;28;20019;-64
2021/06/05 02:40:53;;;;;;;63.13;54.88;;;18.20;99.50;;;;;;4954102;28;20492;-64
2021/06/05 02:43:24;;;;;;;70.00;58.88;;;18.20;99.60;;;;;;4954623;28;20024;-65
2021/06/05 02:45:59;;;;;;;66.60;55.20;;;18.10;99.60;;;;;;4953522;28;20455;-63
2021/06/05 02:48:36;;;;;;;66.07;53.80;;;18.10;99.40;;;;;;4954183;28;20138;-65
2021/06/05 02:51:03;;;;;;;73.05;57.45;;;18.10;99.50;;;;;;4954136;28;20025;-65
2021/06/05 02:53:28;;;;;;;65.05;54.05;;;18.00;99.50;;;;;;4953541;28;20031;-65
2021/06/05 02:55:54;;;;;;;65.55;55.78;;;18.00;99.50;;;;;;4953908;28;20020;-65
2021/06/05 02:58:19;;;;;;;69.07;57.97;;;17.90;99.50;;;;;;4954204;28;20384;-64
2021/06/05 03:00:47;;;;;;;64.63;53.65;;;17.90;99.50;;;;;;4953521;28;20106;-64
2021/06/05 03:03:14;;;;;;;68.53;56.35;;;17.80;99.50;;;;;;4954303;28;20028;-65
2021/06/05 03:05:41;;;;;;;73.43;57.85;;;17.70;99.50;;;;;;4954152;28;20027;-65
2021/06/05 03:08:12;;;;;;;76.85;61.95;;;17.70;99.60;;;;;;4953100;28;20123;-64
2021/06/05 03:10:38;;;;;;;79.93;60.33;;;17.70;99.70;;;;;;4954119;28;20055;-64
2021/06/05 03:13:06;;;;;;;72.35;58.08;;;17.60;99.60;;;;;;4953773;28;20456;-64
2021/06/05 03:15:32;;;;;;;74.03;57.38;;;17.60;99.70;;;;;;4956505;28;20028;-63
2021/06/05 03:17:58;;;;;;;79.20;61.75;;;17.60;99.80;;;;;;4957369;28;20361;-64
2021/06/05 03:20:29;;;;;;;78.60;57.88;;;17.60;99.90;;;;;;4956627;28;20143;-64
2021/06/05 03:22:56;;;;;;;80.97;61.10;;;17.50;99.90;;;;;;4955949;29;20047;-64
2021/06/05 03:25:22;;;;;;;84.28;61.65;;;17.50;99.80;;;;;;4956057;29;20039;-64
2021/06/05 03:27:48;;;;;;;84.72;59.20;;;17.50;99.90;;;;;;4956181;28;20019;-64
2021/06/05 03:30:14;;;;;;;88.30;62.75;;;17.40;99.90;;;;;;4957540;28;20039;-63
2021/06/05 03:32:41;;;;;;;83.80;60.08;;;17.40;99.90;;;;;;4957308;28;20023;-62
2021/06/05 03:35:07;;;;;;;82.13;60.53;;;17.40;99.90;;;;;;4956200;28;20020;-62
2021/06/05 03:37:33;;;;;;;83.68;60.30;;;17.40;99.90;;;;;;4956935;28;20472;-63
2021/06/05 03:40:00;;;;;;;87.20;65.63;;;17.40;99.90;;;;;;4956763;28;20027;-63
2021/06/05 03:42:26;;;;;;;92.20;63.35;;;17.40;99.90;;;;;;4956444;28;20051;-64
2021/06/05 03:44:55;;;;;;;77.93;58.03;;;17.40;99.90;;;;;;4955591;29;20026;-62
2021/06/05 03:47:22;;;;;;;80.90;59.92;;;17.40;99.90;;;;;;4956799;28;20020;-65
2021/06/05 03:49:51;;;;;;;79.55;57.03;;;17.40;99.90;;;;;;4955914;28;20428;-64
2021/06/05 03:52:22;;;;;;;83.32;61.40;;;17.40;99.90;;;;;;4956820;28;20023;-64
2021/06/05 03:54:55;;;;;;;79.15;57.53;;;17.40;99.90;;;;;;4956610;28;20026;-63
2021/06/05 03:57:22;;;;;;;87.55;61.20;;;17.40;99.90;;;;;;4956033;28;20027;-65
2021/06/05 03:59:50;;;;;;;89.03;60.03;;;17.50;99.90;;;;;;4956423;28;20125;-64
2021/06/05 04:02:16;;;;;;;88.90;61.53;;;17.50;99.90;;;;;;4956687;28;20389;-65
2021/06/05 04:04:41;;;;;;;87.85;64.55;;;17.60;99.90;;;;;;4956067;28;20031;-64
2021/06/05 04:07:09;;;;;;;91.43;60.53;;;17.60;99.90;;;;;;4956117;28;20028;-64
2021/06/05 04:09:38;;;;;;;95.70;63.88;;;17.60;99.70;;;;;;4937421;28;20492;-63
2021/06/05 04:12:04;;;;;;;110.15;71.97;;;17.60;99.70;;;;;;4937324;29;20031;-64
2021/06/05 04:14:30;;;;;;;92.60;63.00;;;17.60;99.60;;;;;;4937481;29;20051;-65
2021/06/05 04:16:56;;;;;;;89.30;62.63;;;17.60;99.60;;;;;;4936363;29;20103;-64
2021/06/05 04:19:22;;;;;;;100.00;67.85;;;17.60;99.70;;;;;;4937068;29;20064;-63
2021/06/05 04:21:47;;;;;;;93.63;62.95;;;17.60;99.80;;;;;;4936827;29;20540;-64
2021/06/05 04:24:13;;;;;;;84.28;59.10;;;17.60;99.80;;;;;;4936742;29;20032;-63
2021/06/05 04:26:39;;;;;;;101.20;67.13;;;17.60;99.80;;;;;;4926648;29;20072;-65
2021/06/05 04:29:04;;;;;;;94.13;63.33;;;17.70;99.70;;;;;;4917841;29;20067;-65
2021/06/05 04:31:30;;;;;;;102.07;65.80;;;17.70;99.70;;;;;;4917491;29;20473;-64
2021/06/05 04:33:56;;;;;;;96.70;64.72;;;17.70;99.80;;;;;;4916540;29;20107;-66
2021/06/05 04:36:22;;;;;;;87.30;60.25;;;17.80;99.40;;;;;;4917840;29;20055;-64
2021/06/05 04:38:48;;;;;;;81.60;56.55;;;17.80;99.40;;;;;;4917118;29;20477;-65
2021/06/05 04:41:16;;;;;;;87.72;57.08;;;17.70;99.30;;;;;;4917927;29;20025;-66
2021/06/05 04:43:42;;;;;;;89.93;59.85;;;17.70;99.30;;;;;;4932565;29;20032;-65
2021/06/05 04:46:10;;;;;;;81.45;56.95;;;17.80;99.40;;;;;;4939316;29;20042;-65
2021/06/05 04:48:36;;;;;;;88.30;58.63;;;17.80;99.30;;;;;;4937129;28;20050;-64
2021/06/05 04:51:02;;;;;;;91.28;60.10;;;17.80;99.10;;;;;;4936492;29;20373;-65
2021/06/05 04:53:28;;;;;;;91.57;59.95;;;17.90;99.10;;;;;;4935871;29;20030;-65
2021/06/05 04:55:53;;;;;;;85.53;58.83;;;17.90;99.00;;;;;;4936446;29;20019;-64
2021/06/05 04:58:20;;;;;;;84.32;56.40;;;17.90;99.10;;;;;;4936750;29;20031;-65
2021/06/05 05:00:49;;;;;;;81.35;55.13;;;18.00;99.40;;;;;;4935637;29;20027;-65
2021/06/05 05:03:17;;;;;;;82.32;54.60;;;18.00;99.00;;;;;;4936558;29;20524;-65
2021/06/05 05:05:43;;;;;;;82.03;54.63;;;18.00;98.90;;;;;;4926740;29;20043;-64
2021/06/05 05:08:10;;;;;;;80.10;53.65;;;18.10;98.80;;;;;;4917361;29;20040;-65
2021/06/05 05:10:38;;;;;;;82.15;55.83;;;18.10;98.70;;;;;;4917462;29;20545;-64
2021/06/05 05:13:05;;;;;;;80.10;54.25;;;18.10;98.70;;;;;;4916442;29;20039;-66
2021/06/05 05:15:31;;;;;;;79.93;53.47;;;18.10;98.60;;;;;;4917354;29;20034;-64
2021/06/05 05:17:57;;;;;;;87.78;59.20;;;18.00;98.40;;;;;;4916925;29;20027;-67
2021/06/05 05:20:33;;;;;;;77.32;54.28;;;18.00;98.60;;;;;;4916534;29;20071;-65
2021/06/05 05:22:59;;;;;;;78.97;54.90;;;17.90;98.70;;;;;;4931486;29;20106;-67
2021/06/05 05:25:25;;;;;;;78.60;54.38;;;17.90;98.70;;;;;;4951485;29;20059;-66
2021/06/05 05:27:51;;;;;;;78.45;51.97;;;17.90;98.80;;;;;;4953830;28;20059;-65
2021/06/05 05:30:22;;;;;;;76.13;53.25;;;17.90;98.80;;;;;;4953327;29;20043;-65
2021/06/05 05:32:48;;;;;;;76.80;53.45;;;17.90;98.80;;;;;;4955082;28;20086;-65
2021/06/05 05:35:14;;;;;;;73.03;50.20;;;18.00;98.90;;;;;;4954624;28;20027;-65
2021/06/05 05:37:41;;;;;;;76.90;52.88;;;18.00;98.90;;;;;;4955164;28;20461;-64
2021/06/05 05:40:07;;;;;;;86.15;56.38;;;18.10;99.20;;;;;;4953712;29;20055;-65
2021/06/05 05:42:32;;;;;;;77.50;51.85;;;18.10;98.70;;;;;;4954355;28;20106;-64
2021/06/05 05:44:58;;;;;;;81.35;54.05;;;18.20;98.70;;;;;;4954657;28;20444;-63
2021/06/05 05:47:23;;;;;;;77.95;52.05;;;18.10;98.60;;;;;;4954781;28;20047;-64
2021/06/05 05:49:49;;;;;;;73.25;49.10;;;18.10;98.70;;;;;;4953793;28;20484;-65
2021/06/05 05:52:15;;;;;;;69.90;49.20;;;18.20;98.70;;;;;;4954906;28;20070;-64
2021/06/05 05:54:40;;;;;;;73.85;50.85;;;18.30;98.70;;;;;;4953497;29;20031;-64
2021/06/05 05:57:06;;;;;;;70.43;49.95;;;18.40;98.70;;;;;;4953767;28;20025;-65
2021/06/05 05:59:32;;;;;;;70.55;48.55;;;18.40;98.40;;;;;;4954756;28;20477;-64
2021/06/05 06:01:57;;;;;;;69.97;46.83;;;18.40;98.20;;;;;;4952589;29;20059;-64
2021/06/05 06:04:23;;;;;;;72.15;49.30;;;18.50;98.30;;;;;;4954518;28;20114;-64
2021/06/05 06:06:48;;;;;;;64.53;44.33;;;18.50;97.90;;;;;;4954183;28;20146;-63
2021/06/05 06:09:15;;;;;;;64.18;45.47;;;18.60;98.00;;;;;;4953865;28;20041;-63
2021/06/05 06:11:45;;;;;;;62.80;43.50;;;18.70;97.90;;;;;;4954696;28;20042;-65
2021/06/05 06:14:11;;;;;;;66.13;44.00;;;18.80;97.60;;;;;;4954586;28;20420;-64
2021/06/05 06:16:37;;;;;;;62.78;43.08;;;18.80;97.60;;;;;;4953793;28;20074;-65
2021/06/05 06:19:03;;;;;;;60.35;41.75;;;18.90;97.40;;;;;;4954041;28;20028;-64
2021/06/05 06:21:28;;;;;;;53.75;39.55;;;18.90;97.40;;;;;;4954453;28;20031;-64
2021/06/05 06:23:54;;;;;;;52.67;38.53;;;19.00;97.20;;;;;;4952251;29;20031;-64
2021/06/05 06:26:27;;;;;;;54.80;38.45;;;19.00;97.10;;;;;;4954432;28;20050;-65
2021/06/05 06:28:53;;;;;;;56.85;40.25;;;19.10;97.30;;;;;;4954366;28;20043;-65
2021/06/05 06:31:21;;;;;;;50.35;36.63;;;19.20;97.10;;;;;;4953867;28;20044;-64
2021/06/05 06:33:47;;;;;;;51.28;36.55;;;19.30;96.50;;;;;;4954276;28;20075;-66
2021/06/05 06:36:14;;;;;;;47.50;33.53;;;19.30;96.40;;;;;;4954306;28;20106;-65
2021/06/05 06:38:43;;;;;;;44.22;31.48;;;19.30;96.50;;;;;;4953740;28;20019;-65
2021/06/05 06:41:12;;;;;;;44.92;31.98;;;19.30;96.50;;;;;;4954294;28;20522;-65
2021/06/05 06:43:39;;;;;;;48.50;32.40;;;19.40;96.20;;;;;;4954233;28;20110;-65
2021/06/05 06:46:07;;;;;;;40.92;29.38;;;19.40;96.40;;;;;;4953562;28;20106;-65
2021/06/05 06:48:34;;;;;;;39.67;30.10;;;19.50;96.40;;;;;;4954530;28;20059;-65
2021/06/05 06:51:00;;;;;;;41.80;30.52;;;19.50;96.10;;;;;;4957762;28;20046;-65
2021/06/05 06:53:26;;;;;;;43.45;28.92;;;19.50;96.10;;;;;;4957363;28;20031;-65
2021/06/05 06:55:51;;;;;;;38.22;28.08;;;19.40;96.10;;;;;;4957747;28;20030;-67
2021/06/05 06:58:17;;;;;;;38.08;27.95;;;19.40;96.10;;;;;;4956130;29;20551;-66
2021/06/05 07:00:46;;;;;;;35.30;26.38;;;19.40;95.80;;;;;;4957910;28;20023;-65
2021/06/05 07:03:13;;;;;;;33.53;25.63;;;19.30;96.10;;;;;;4957915;28;20102;-65
2021/06/05 07:05:38;;;;;;;31.50;24.60;;;19.30;96.10;;;;;;4957034;28;20103;-65
2021/06/05 07:08:14;;;;;;;32.63;24.42;;;19.20;96.00;;;;;;4957550;28;20122;-65
2021/06/05 07:10:41;;;;;;;30.60;23.38;;;19.20;96.10;;;;;;4957702;28;20114;-65
2021/06/05 07:13:06;;;;;;;32.95;23.15;;;19.20;96.30;;;;;;4956775;28;20139;-65
2021/06/05 07:15:32;;;;;;;32.03;22.65;;;19.30;96.20;;;;;;4957791;28;20110;-64
2021/06/05 07:17:58;;;;;;;27.83;21.92;;;19.40;96.10;;;;;;4957438;28;20531;-65
2021/06/05 07:20:24;;;;;;;32.65;24.45;;;19.50;96.00;;;;;;4955480;29;20501;-66
2021/06/05 07:22:51;;;;;;;31.80;23.33;;;19.50;95.80;;;;;;4957246;28;20428;-66
2021/06/05 07:25:16;;;;;;;36.45;24.50;;;19.50;95.70;;;;;;4957474;28;20015;-65
2021/06/05 07:27:42;;;;;;;30.98;23.15;;;19.50;95.70;;;;;;4956662;28;20039;-65
2021/06/05 07:30:08;;;;;;;31.35;23.80;;;19.40;95.80;;;;;;4957252;28;20114;-64
2021/06/05 07:32:34;;;;;;;28.55;22.67;;;19.40;95.80;;;;;;4957477;28;20038;-65
2021/06/05 07:35:00;;;;;;;29.95;22.42;;;19.40;95.90;;;;;;4956343;28;20023;-64
2021/06/05 07:37:26;;;;;;;24.27;19.98;;;19.50;95.70;;;;;;4957248;28;20077;-65
2021/06/05 07:39:51;;;;;;;26.65;19.92;;;19.50;95.50;;;;;;4957216;28;20436;-64
2021/06/05 07:42:17;;;;;;;24.08;20.13;;;19.50;95.40;;;;;;4956806;28;20045;-65
2021/06/05 07:44:42;;;;;;;24.80;19.33;;;19.60;95.40;;;;;;4957353;28;20122;-65
2021/06/05 07:47:09;;;;;;;20.77;17.15;;;19.60;95.30;;;;;;4956879;28;20086;-65
2021/06/05 07:49:37;;;;;;;23.83;19.17;;;19.70;95.50;;;;;;4956138;28;20039;-64
2021/06/05 07:52:07;;;;;;;24.02;19.08;;;19.90;95.20;;;;;;4956624;28;20020;-64
2021/06/05 07:54:33;;;;;;;20.52;18.33;;;20.10;94.80;;;;;;4956170;28;20031;-65
2021/06/05 07:56:59;;;;;;;21.40;17.80;;;20.10;94.70;;;;;;4956358;28;20030;-65
2021/06/05 07:59:26;;;;;;;20.25;16.48;;;20.10;94.60;;;;;;4955579;29;20171;-65
2021/06/05 08:01:53;;;;;;;21.30;18.45;;;20.10;94.60;;;;;;4954580;28;20445;-66
2021/06/05 08:04:19;;;;;;;22.58;17.73;;;20.00;94.60;;;;;;4956842;28;20028;-64
2021/06/05 08:06:46;;;;;;;20.00;16.65;;;20.00;94.70;;;;;;4956556;28;20071;-64
2021/06/05 08:09:13;;;;;;;18.83;16.80;;;19.90;94.70;;;;;;4955915;28;20444;-64
2021/06/05 08:11:38;;;;;;;18.35;16.40;;;19.90;94.70;;;;;;4956765;28;20062;-66
2021/06/05 08:14:05;;;;;;;19.42;16.70;;;19.90;95.00;;;;;;4956221;28;20065;-64
2021/06/05 08:16:36;;;;;;;23.75;18.70;;;19.80;94.80;;;;;;4954483;29;20023;-64
2021/06/05 08:19:06;;;;;;;22.30;17.55;;;19.70;94.80;;;;;;4956166;28;20479;-65
2021/06/05 08:21:32;;;;;;;21.73;17.98;;;19.50;95.00;;;;;;4956769;28;20027;-66
2021/06/05 08:23:57;;;;;;;24.15;18.90;;;19.50;95.30;;;;;;4955424;28;20031;-65
2021/06/05 08:26:23;;;;;;;22.15;18.90;;;19.50;95.40;;;;;;4956355;28;20019;-65
2021/06/05 08:28:49;;;;;;;19.50;17.17;;;19.50;95.40;;;;;;4955729;28;20046;-66
2021/06/05 08:31:16;;;;;;;20.60;17.58;;;19.50;95.60;;;;;;4932399;28;20039;-66
2021/06/05 08:33:44;;;;;;;20.27;17.63;;;19.50;95.60;;;;;;4936362;29;20024;-66
2021/06/05 08:36:11;;;;;;;19.70;17.60;;;19.40;95.60;;;;;;4946942;29;20061;-65
2021/06/05 08:38:38;;;;;;;21.52;17.55;;;19.40;95.70;;;;;;4945398;28;20031;-65
2021/06/05 08:41:31;;;;;;;22.73;17.42;;;19.30;95.70;;;;;;4936558;29;20028;-68
2021/06/05 08:44:35;;;;;;;19.70;16.05;;;19.20;96.00;;;;;;4942225;29;20063;-64
2021/06/05 08:47:26;;;;;;;17.27;15.10;;;19.20;95.90;;;;;;4943871;29;20476;-67
2021/06/05 08:49:52;;;;;;;18.45;15.98;;;19.30;95.90;;;;;;4942678;29;20404;-65
2021/06/05 08:52:17;;;;;;;21.40;17.23;;;19.20;95.80;;;;;;4946930;28;20093;-66
2021/06/05 08:55:13;;;;;;;18.55;15.85;;;19.20;95.90;;;;;;4944217;28;20035;-64
2021/06/05 08:57:42;;;;;;;19.50;15.85;;;19.30;96.10;;;;;;4955813;28;20020;-66
2021/06/05 09:00:46;;;;;;;18.45;15.27;;;19.40;95.90;;;;;;4948768;28;20067;-69
2021/06/05 09:03:16;;;;;;;19.15;16.50;;;19.60;95.60;;;;;;4925720;29;20028;-64
2021/06/05 09:05:54;;;;;;;13.30;11.90;;;19.90;95.10;;;;;;4935176;29;20056;-64
2021/06/05 09:08:22;;;;;;;13.70;12.40;;;20.20;94.50;;;;;;4931179;29;20216;-68
2021/06/05 09:10:49;;;;;;;13.73;12.30;;;20.50;94.20;;;;;;4929807;29;20048;-64
2021/06/05 09:13:15;;;;;;;12.70;10.85;;;20.80;93.70;;;;;;4933506;29;20032;-65
2021/06/05 09:15:41;;;;;;;14.63;10.65;;;21.00;93.20;;;;;;4936004;29;20019;-65
2021/06/05 09:18:09;;;;;;;10.63;9.52;;;21.10;92.80;;;;;;4935801;29;20031;-64
2021/06/05 09:20:38;;;;;;;12.45;9.68;;;21.10;92.60;;;;;;4934919;29;20062;-64
2021/06/05 09:23:33;;;;;;;12.50;10.65;;;21.00;92.80;;;;;;4934170;29;20036;-65
2021/06/05 09:26:23;;;;;;;11.50;9.30;;;20.70;93.00;;;;;;4932409;29;20361;-64
2021/06/05 09:29:06;;;;;;;12.43;10.63;;;20.40;93.30;;;;;;4933691;29;20038;-65
2021/06/05 09:31:31;;;;;;;10.35;9.35;;;20.20;93.80;;;;;;4935974;29;20031;-65
2021/06/05 09:33:57;;;;;;;11.27;9.13;;;20.00;94.20;;;;;;4939777;28;20032;-64
2021/06/05 09:36:37;;;;;;;10.02;9.02;;;20.00;94.50;;;;;;4935779;29;20047;-64
2021/06/05 09:39:10;;;;;;;11.88;10.10;;;20.00;94.40;;;;;;4941930;29;20048;-64
2021/06/05 09:41:36;;;;;;;11.50;10.00;;;20.00;94.40;;;;;;4944151;28;20016;-65
2021/06/05 09:44:19;;;;;;;10.23;9.23;;;20.00;94.30;;;;;;4945025;29;20054;-64
2021/06/05 09:47:18;;;;;;;9.73;8.73;;;20.00;94.30;;;;;;4940699;29;20544;-64
2021/06/05 09:49:50;;;;;;;12.23;9.38;;;19.90;94.30;;;;;;4925515;29;20031;-64
2021/06/05 09:52:25;;;;;;;10.18;9.05;;;19.90;94.40;;;;;;4944691;29;20380;-64
2021/06/05 09:55:18;;;;;;;15.20;10.50;;;20.10;94.60;;;;;;4941696;29;20032;-69
2021/06/05 09:57:49;;;;;;;10.38;9.38;;;20.40;94.30;;;;;;4926573;29;20102;-64
2021/06/05 10:00:24;;;;;;;11.50;10.30;;;20.70;93.80;;;;;;4934204;29;20035;-65
2021/06/05 10:02:53;;;;;;;16.27;10.52;;;21.00;93.10;;;;;;4933265;29;20034;-65
2021/06/05 10:05:27;;;;;;;12.07;9.95;;;21.10;92.60;;;;;;4933015;29;20028;-65
2021/06/05 10:07:54;;;;;;;10.65;9.65;;;21.30;92.10;;;;;;4934622;29;20064;-65
2021/06/05 10:10:41;;;;;;;10.50;9.50;;;21.20;92.00;;;;;;4934412;29;20059;-64
2021/06/05 10:13:24;;;;;;;10.80;9.55;;;21.10;92.00;;;;;;4934371;29;20473;-64
2021/06/05 10:16:14;;;;;;;9.85;8.95;;;21.00;92.30;;;;;;4934527;29;20528;-65
2021/06/05 10:18:45;;;;;;;9.50;8.60;;;20.90;92.30;;;;;;4933503;29;20024;-64
2021/06/05 10:21:25;;;;;;;11.25;10.18;;;20.80;92.60;;;;;;4934917;29;20052;-63
2021/06/05 10:24:02;;;;;;;10.07;8.60;;;20.60;93.00;;;;;;4934824;29;20032;-65
2021/06/05 10:26:33;;;;;;;10.18;9.05;;;20.50;92.90;;;;;;4938979;29;20031;-63
2021/06/05 10:29:29;;;;;;;10.00;8.93;;;20.40;93.20;;;;;;4938608;29;20050;-65
2021/06/05 10:31:58;;;;;;;9.95;8.95;;;20.30;93.30;;;;;;4938954;29;20480;-64
2021/06/05 10:34:37;;;;;;;10.82;9.25;;;20.20;93.20;;;;;;4938990;29;20026;-63
2021/06/05 10:37:03;;;;;;;10.25;9.25;;;20.20;93.30;;;;;;4938293;29;20066;-64
2021/06/05 10:39:34;;;;;;;11.23;10.13;;;20.10;93.60;;;;;;4939508;28;20411;-64
2021/06/05 10:42:05;;;;;;;10.38;9.35;;;20.20;93.60;;;;;;4938575;29;20544;-64
2021/06/05 10:44:31;;;;;;;10.63;9.63;;;20.40;93.30;;;;;;4937888;29;20070;-63
2021/06/05 10:47:05;;;;;;;10.27;9.20;;;20.70;93.00;;;;;;4937745;29;20055;-65
2021/06/05 10:49:44;;;;;;;10.45;9.35;;;20.90;92.30;;;;;;4938400;29;20500;-65
2021/06/05 10:52:31;;;;;;;9.43;8.52;;;21.00;92.00;;;;;;4938237;29;20039;-64
2021/06/05 10:55:08;;;;;;;10.48;8.38;;;20.80;92.00;;;;;;4938463;29;20020;-65
2021/06/05 10:57:41;;;;;;;10.25;8.75;;;20.70;92.50;;;;;;4927751;29;20376;-65
2021/06/05 11:00:27;;;;;;;10.10;9.10;;;20.60;92.60;;;;;;4919211;29;20099;-64
2021/06/05 11:02:56;;;;;;;9.48;8.57;;;20.50;93.00;;;;;;4936440;29;20024;-65
2021/06/05 11:05:27;;;;;;;9.85;8.88;;;20.40;93.30;;;;;;4937690;29;20020;-65
2021/06/05 11:08:07;;;;;;;10.00;9.07;;;20.30;93.10;;;;;;4937894;29;20027;-65
2021/06/05 11:11:00;;;;;;;13.35;9.27;;;20.20;93.30;;;;;;4918627;29;20025;-66
2021/06/05 11:13:32;;;;;;;9.90;8.90;;;20.10;93.60;;;;;;4917779;29;20024;-64
2021/06/05 11:16:04;;;;;;;;;;;20.00;93.70;;;;;;4919079;29;20040;-64
2021/06/05 11:18:38;;;;;;;13.10;10.40;;;19.90;93.70;;;;;;4917789;29;19915;-64
2021/06/05 11:21:22;;;;;;;12.48;11.18;;;19.90;93.60;;;;;;4918744;29;20067;-64
2021/06/05 11:23:57;;;;;;;11.68;9.93;;;19.80;93.60;;;;;;4918164;29;20032;-64
2021/06/05 11:26:53;;;;;;;13.20;10.30;;;19.90;93.60;;;;;;4918151;29;20495;-65
2021/06/05 11:29:19;;;;;;;11.43;10.27;;;20.00;93.50;;;;;;4930536;29;20051;-65
2021/06/05 11:31:50;;;;;;;10.95;9.85;;;20.10;93.50;;;;;;4935835;29;20031;-66
2021/06/05 11:34:37;;;;;;;11.55;10.40;;;20.30;93.30;;;;;;4947104;28;20102;-66
2021/06/05 11:37:14;;;;;;;10.35;9.48;;;20.50;92.90;;;;;;4952354;28;20035;-66
2021/06/05 11:39:52;;;;;;;10.95;9.65;;;20.70;92.40;;;;;;4935243;29;20540;-65
2021/06/05 11:42:20;;;;;;;12.23;9.52;;;20.80;92.20;;;;;;4936759;29;20114;-67
2021/06/05 11:44:50;;;;;;;10.80;9.85;;;20.90;92.20;;;;;;4932519;29;20082;-65
2021/06/05 11:47:16;;;;;;;13.25;10.90;;;21.00;92.30;;;;;;4936469;29;20097;-66
2021/06/05 11:50:07;;;;;;;10.50;9.52;;;21.10;92.00;;;;;;4945056;29;20027;-65
2021/06/05 11:52:33;;;;;;;13.52;11.52;;;21.20;92.00;;;;;;4941663;28;20044;-64
2021/06/05 11:55:13;;;;;;;13.50;9.90;;;21.10;91.60;;;;;;4935750;29;20027;-66
2021/06/05 11:57:43;;;;;;;12.82;11.52;;;21.00;91.80;;;;;;4936021;29;20484;-66
2021/06/05 12:00:17;;;;;;;12.98;11.77;;;20.80;92.10;;;;;;4936681;29;20087;-65
2021/06/05 12:02:46;;;;;;;11.75;10.55;;;20.80;92.20;;;;;;4935895;29;20027;-67
2021/06/05 12:05:23;;;;;;;13.75;12.45;;;20.70;92.30;;;;;;4936712;29;20031;-68
2021/06/05 12:07:49;;;;;;;12.52;11.32;;;20.60;92.60;;;;;;4935624;29;20027;-67
2021/06/05 12:10:32;;;;;;;12.52;11.43;;;20.50;92.60;;;;;;4935884;29;20083;-66
2021/06/05 12:12:58;;;;;;;10.88;9.77;;;20.40;92.60;;;;;;4936413;29;20079;-64
2021/06/05 12:15:37;;;;;;;11.13;10.02;;;20.30;92.60;;;;;;4936745;29;20103;-66
2021/06/05 12:18:09;;;;;;;10.35;9.45;;;20.20;92.70;;;;;;4935751;29;20030;-66
2021/06/05 12:20:48;;;;;;;11.68;10.68;;;20.20;92.70;;;;;;4936283;29;20124;-66
2021/06/05 12:23:24;;;;;;;15.63;10.52;;;20.20;92.90;;;;;;4935645;29;20425;-67
2021/06/05 12:25:51;;;;;;;10.43;9.38;;;20.40;93.10;;;;;;4936237;29;20046;-71
2021/06/05 12:28:24;;;;;;;9.93;8.93;;;20.50;92.70;;;;;;4936679;29;20038;-69
2021/06/05 12:30:51;;;;;;;10.10;9.20;;;20.60;92.20;;;;;;4935868;29;20024;-67
2021/06/05 12:33:32;;;;;;;10.55;9.55;;;20.60;92.10;;;;;;4936319;29;20020;-67
2021/06/05 12:35:59;;;;;;;11.00;9.88;;;20.50;92.20;;;;;;4935531;29;20032;-71
2021/06/05 12:38:52;;;;;;;10.95;9.85;;;20.60;92.10;;;;;;4934161;29;20686;-70
2021/06/05 12:41:23;;;;;;;13.95;9.55;;;20.70;92.00;;;;;;4922166;29;20519;-72
2021/06/05 12:43:49;;;;;;;11.45;10.27;;;20.70;92.00;;;;;;4934477;29;20070;-72
2021/06/05 12:46:33;;;;;;;10.65;9.63;;;20.60;91.90;;;;;;4936228;29;20099;-72
2021/06/05 12:49:02;;;;;;;9.95;8.90;;;20.50;92.10;;;;;;4917321;29;20036;-70